Latest Weather Observations for Fawkner Beacon

IDV60901

Issued at 2:51 am EDT Saturday 16 November 2019 (issued every 10 minutes, with the page automatically refreshed every 10 minutes)

About weather observations | Map of Melbourne area stations | Latest observations for Melbourne area | Other Formats
Station Details ID: 086376 Name: FAWKNER BEACON Lat: -37.95 Lon: 144.93 Height: 17.0 m
Data from the previous 72 hours. | See also: Recent months at Fawkner Beacon
Date/Time
EDT
Temp
°C
App
Temp
°C
Dew
Point
°C
Rel
Hum
%
Delta-T
°C
Wind Press
QNH
hPa
Press
MSL
hPa
Rain since
9am
mm
Dir  Spd
km/h
Gust
km/h
Spd
kts
Gust
kts
16/02:30am - - - - - W 24 30 13 16 - - -
16/02:00am - - - - - W 26 32 14 17 - - -
16/01:30am - - - - - W 24 30 13 16 - - -
16/01:00am - - - - - W 24 30 13 16 - - -
16/12:30am - - - - - W 26 33 14 18 - - -
16/12:00am - - - - - W 30 35 16 19 - - -
 
Date/Time
EDT
Temp
°C
App
Temp
°C
Dew
Point
°C
Rel
Hum
%
Delta-T
°C
Wind Press
QNH
hPa
Press
MSL
hPa
Rain since
9am
mm
Dir  Spd
km/h
Gust
km/h
Spd
kts
Gust
kts
15/11:30pm - - - - - W 30 33 16 18 - - -
15/11:00pm - - - - - W 33 41 18 22 - - -
15/10:30pm - - - - - W 33 43 18 23 - - -
15/10:00pm - - - - - W 28 32 15 17 - - -
15/09:30pm - - - - - WSW 43 50 23 27 - - -
15/09:00pm - - - - - WSW 32 41 17 22 - - -
15/08:30pm - - - - - WSW 32 39 17 21 - - -
15/08:00pm - - - - - SW 35 41 19 22 - - -
15/07:30pm - - - - - SW 33 41 18 22 - - -
15/07:00pm - - - - - SW 37 44 20 24 - - -
15/06:30pm - - - - - SW 43 52 23 28 - - -
15/06:00pm - - - - - SW 41 52 22 28 - - -
15/05:30pm - - - - - SW 43 48 23 26 - - -
15/05:20pm - - - - - SW 30 48 16 26 - - -
15/05:00pm - - - - - S 32 39 17 21 - - -
15/04:30pm - - - - - SSW 28 33 15 18 - - -
15/04:00pm - - - - - WSW 24 32 13 17 - - -
15/03:30pm - - - - - WSW 32 39 17 21 - - -
15/03:00pm - - - - - WSW 28 35 15 19 - - -
15/02:30pm - - - - - WSW 28 33 15 18 - - -
15/02:00pm - - - - - WSW 44 61 24 33 - - -
15/01:53pm - - - - - W 35 61 19 33 - - -
15/01:30pm - - - - - W 28 35 15 19 - - -
15/01:16pm - - - - - WNW 33 43 18 23 - - -
15/01:00pm - - - - - NW 30 39 16 21 - - -
15/12:30pm - - - - - WNW 33 41 18 22 - - -
15/12:00pm - - - - - WNW 26 32 14 17 - - -
15/11:30am - - - - - W 28 33 15 18 - - -
15/11:00am - - - - - W 26 33 14 18 - - -
15/10:30am - - - - - W 26 33 14 18 - - -
15/10:00am - - - - - NW 26 32 14 17 - - -
15/09:30am - - - - - WNW 28 35 15 19 - - -
15/09:00am - - - - - W 28 35 15 19 - - -
15/08:30am - - - - - W 37 46 20 25 - - -
15/08:00am - - - - - W 32 43 17 23 - - -
15/07:30am - - - - - WNW 26 30 14 16 - - -
15/07:00am - - - - - WNW 26 32 14 17 - - -
15/06:30am - - - - - WNW 28 33 15 18 - - -
15/06:00am - - - - - WNW 28 39 15 21 - - -
15/05:30am - - - - - WNW 32 39 17 21 - - -
15/05:00am - - - - - WNW 32 39 17 21 - - -
15/04:30am - - - - - WNW 26 32 14 17 - - -
15/04:00am - - - - - WNW 30 39 16 21 - - -
15/03:30am - - - - - W 41 48 22 26 - - -
15/03:00am - - - - - WSW 35 50 19 27 - - -
15/02:30am - - - - - W 39 44 21 24 - - -
15/02:00am - - - - - WSW 41 48 22 26 - - -
15/01:30am - - - - - W 39 44 21 24 - - -
15/01:00am - - - - - W 43 50 23 27 - - -
15/12:30am - - - - - WSW 35 44 19 24 - - -
15/12:00am - - - - - WSW 30 35 16 19 - - -
 
Date/Time
EDT
Temp
°C
App
Temp
°C
Dew
Point
°C
Rel
Hum
%
Delta-T
°C
Wind Press
QNH
hPa
Press
MSL
hPa
Rain since
9am
mm
Dir  Spd
km/h
Gust
km/h
Spd
kts
Gust
kts
14/11:30pm - - - - - WSW 28 33 15 18 - - -
14/11:00pm - - - - - WSW 35 41 19 22 - - -
14/10:30pm - - - - - WSW 35 43 19 23 - - -
14/10:00pm - - - - - WSW 35 43 19 23 - - -
14/09:30pm - - - - - WSW 41 44 22 24 - - -
14/09:00pm - - - - - WSW 30 39 16 21 - - -
14/08:30pm - - - - - WSW 24 32 13 17 - - -
14/08:00pm - - - - - WSW 33 39 18 21 - - -
14/07:30pm - - - - - WSW 32 39 17 21 - - -
14/07:00pm - - - - - WSW 32 39 17 21 - - -
14/06:30pm - - - - - SW 30 35 16 19 - - -
14/06:00pm - - - - - SW 30 35 16 19 - - -
14/05:30pm - - - - - SW 33 39 18 21 - - -
14/05:00pm - - - - - SW 19 22 10 12 - - -
14/04:30pm - - - - - WSW 22 26 12 14 - - -
14/04:00pm - - - - - W 24 30 13 16 - - -
14/03:30pm - - - - - WNW 26 30 14 16 - - -
14/03:00pm - - - - - WNW 22 28 12 15 - - -
14/02:30pm - - - - - WNW 28 33 15 18 - - -
14/02:00pm - - - - - WNW 28 33 15 18 - - -
14/01:30pm - - - - - WNW 20 28 11 15 - - -
14/01:00pm - - - - - WNW 20 30 11 16 - - -
14/12:30pm - - - - - WNW 26 32 14 17 - - -
14/12:00pm - - - - - WNW 28 39 15 21 - - -
14/11:30am - - - - - WNW 28 33 15 18 - - -
14/11:00am - - - - - WNW 26 32 14 17 - - -
14/10:30am - - - - - NW 30 35 16 19 - - -
14/10:00am - - - - - WNW 26 32 14 17 - - -
14/09:30am - - - - - WNW 30 33 16 18 - - -
14/09:00am - - - - - W 32 41 17 22 - - -
14/08:30am - - - - - WNW 35 44 19 24 - - -
14/08:00am - - - - - WNW 32 41 17 22 - - -
14/07:30am - - - - - NW 32 39 17 21 - - -
14/07:00am - - - - - NW 32 41 17 22 - - -
14/06:30am - - - - - WNW 32 41 17 22 - - -
14/06:00am - - - - - NW 28 33 15 18 - - -
14/05:30am - - - - - WNW 28 32 15 17 - - -
14/05:00am - - - - - WNW 35 43 19 23 - - -
14/04:30am - - - - - W 37 46 20 25 - - -
14/04:00am - - - - - W 33 44 18 24 - - -
14/03:54am - - - - - W 33 44 18 24 - - -
14/03:30am - - - - - WNW 22 26 12 14 - - -
14/03:00am - - - - - WNW 22 35 12 19 - - -
14/02:30am - - - - - WNW 28 39 15 21 - - -
14/02:00am - - - - - WNW 26 32 14 17 - - -
14/01:30am - - - - - WNW 28 33 15 18 - - -
14/01:00am - - - - - WNW 28 35 15 19 - - -
14/12:30am - - - - - W 24 32 13 17 - - -
14/12:00am - - - - - W 28 35 15 19 - - -
 
Date/Time
EDT
Temp
°C
App
Temp
°C
Dew
Point
°C
Rel
Hum
%
Delta-T
°C
Wind Press
QNH
hPa
Press
MSL
hPa
Rain since
9am
mm
Dir  Spd
km/h
Gust
km/h
Spd
kts
Gust
kts
13/11:30pm - - - - - W 30 35 16 19 - - -
13/11:00pm - - - - - W 35 43 19 23 - - -
13/10:30pm - - - - - WSW 41 48 22 26 - - -
13/10:00pm - - - - - WSW 43 52 23 28 - - -
13/09:30pm - - - - - WSW 41 48 22 26 - - -
13/09:00pm - - - - - WSW 41 48 22 26 - - -
13/08:30pm - - - - - WSW 39 48 21 26 - - -
13/08:00pm - - - - - WSW 37 46 20 25 - - -
13/07:30pm - - - - - WSW 35 44 19 24 - - -
13/07:00pm - - - - - W 35 43 19 23 - - -
13/06:30pm - - - - - W 35 43 19 23 - - -
13/06:00pm - - - - - WSW 35 44 19 24 - - -
13/05:30pm - - - - - WSW 32 41 17 22 - - -
13/05:00pm - - - - - W 35 57 19 31 - - -
13/04:30pm - - - - - W 32 41 17 22 - - -
13/04:00pm - - - - - WSW 35 46 19 25 - - -
13/03:30pm - - - - - W 39 44 21 24 - - -
13/03:00pm - - - - - W 37 44 20 24 - - -
13/02:30pm - - - - - W 35 43 19 23 - - -
13/02:00pm - - - - - W 39 48 21 26 - - -
13/01:30pm - - - - - W 35 46 19 25 - - -
13/01:00pm - - - - - W 44 52 24 28 - - -
13/12:30pm - - - - - W 33 41 18 22 - - -
13/12:05pm - - - - - W 35 52 19 28 - - -
13/12:00pm - - - - - W 28 35 15 19 - - -
13/11:30am - - - - - W 37 46 20 25 - - -
13/11:00am - - - - - W 37 46 20 25 - - -
13/10:30am - - - - - WSW 35 44 19 24 - - -
13/10:00am - - - - - W 33 41 18 22 - - -
13/09:30am - - - - - W 32 39 17 21 - - -
13/09:00am - - - - - W 30 35 16 19 - - -
13/08:30am - - - - - WNW 35 41 19 22 - - -
13/08:00am - - - - - WNW 32 41 17 22 - - -
13/07:30am - - - - - W 33 41 18 22 - - -
13/07:00am - - - - - W 28 35 15 19 - - -
13/06:30am - - - - - W 30 35 16 19 - - -
13/06:00am - - - - - WNW 33 41 18 22 - - -
13/05:30am - - - - - W 33 41 18 22 - - -
13/05:00am - - - - - WNW 32 43 17 23 - - -
13/04:30am - - - - - W 33 43 18 23 - - -
13/04:00am - - - - - W 37 46 20 25 - - -
13/03:30am - - - - - W 39 46 21 25 - - -
13/03:00am - - - - - W 37 44 20 24 - - -

Latest Capital City Observations: Canberra | Sydney | Melbourne | Brisbane | Adelaide | Perth | Hobart | Darwin

Other formats

Comma delimited format used in spreadsheet applications
http://www.bom.gov.au/fwo/IDV60901/IDV60901.95872.axf

JavaScript Object Notation format (JSON) in row-major order
http://www.bom.gov.au/fwo/IDV60901/IDV60901.95872.json

Data quality

Most of these data are generated automatically and are frequently updated. Quality checks on data are not normally performed. It is possible for incorrect values to appear. Refer to information at About Latest Weather Observations and please check the disclaimer before using these data.